ADDS METAR Data INFO
IDs: Format: Raw Decoded Include TAF

Data at: 1533 UTC 25 Feb 2018

KFYM 251515Z AUTO 17006KT 10SM SCT006 BKN012 BKN017 12/12 A3008 RMK A01
KFYM 251455Z AUTO VRB04KT 10SM SCT007 BKN012 BKN017 12/12 A3009 RMK A01
KFYM 251435Z AUTO 19006KT 10SM SCT006 BKN012 12/12 A3008 RMK A01
KFYM 251410Z AUTO 21004KT 10SM OVC006 12/12 A3008 RMK A01
KFYM 251340Z AUTO 22005KT 10SM FEW006 BKN010 OVC021 12/12 A3008 RMK A01
KFYM 251335Z AUTO 23006KT 10SM FEW006 BKN010 OVC021 12/12 A3009 RMK A01
KFYM 251245Z AUTO VRB04KT 10SM BKN004 OVC010 12/12 A3004 RMK A01
KFYM 251235Z AUTO 17005KT 10SM SCT005 BKN010 OVC015 12/12 A3004 RMK A01
KFYM 251215Z AUTO 22003KT 10SM FEW004 BKN014 OVC075 12/12 A3006 RMK A01
KFYM 251155Z AUTO 22004KT 10SM FEW014 SCT026 OVC075 12/12 A3005 RMK A01 P0002
KFYM 251135Z AUTO 22004KT 10SM FEW009 SCT026 BKN036 12/12 A3003 RMK A01
KFYM 251115Z AUTO 20004KT 10SM FEW008 SCT043 BKN060 12/12 A3002 RMK A01
KFYM 251055Z AUTO 19006KT 8SM FEW046 BKN060 OVC075 12/11 A3001 RMK A01 P0001
KFYM 251035Z AUTO 22005KT 9SM SCT042 BKN060 OVC075 12/11 A3002 RMK A01
KFYM 251015Z AUTO 20005KT 10SM FEW003 SCT037 BKN065 12/12 A2999 RMK A01
KFYM 250955Z AUTO 17006KT 6SM BR FEW020 SCT031 BKN038 12/11 A2998 RMK A01 P0008
KFYM 250935Z AUTO 23003KT 6SM BR SCT019 BKN027 OVC075 12/11 A3000 RMK A01
KFYM 250915Z AUTO 21004KT 5SM BR SCT033 SCT050 OVC075 12/11 A2998 RMK A01
KFYM 250800Z AUTO 28014G21KT 3SM BR SCT004 BKN012 OVC025 14/13 A2998 RMK A01
KFYM 250755Z AUTO 28007G17KT 3SM BR BKN004 BKN015 OVC023 14/14 A2998 RMK A01 P0045
KFYM 250735Z AUTO 25015G32KT 1/2SM BR OVC003 17/16 A2993 RMK A01
KFYM 250715Z AUTO 20017G24KT 10SM BKN021 OVC027 21/17 A2990 RMK A01
KFYM 250655Z AUTO 20017G24KT 10SM BKN021 OVC027 20/17 A2991 RMK A01
KFYM 250635Z AUTO 20014G23KT 10SM OVC021 20/17 A2992 RMK A01
KFYM 250615Z AUTO 21016G28KT 10SM BKN021 OVC027 20/17 A2991 RMK A01
KFYM 250555Z AUTO 20017G25KT OVC023 20/17 A2991 RMK A01
KFYM 250535Z AUTO 20016G25KT 10SM BKN025 OVC050 21/17 A2991 RMK A01
KFYM 250515Z AUTO 20019G27KT 10SM SCT024 BKN050 OVC060 20/17 A2991 RMK A01
KFYM 250455Z AUTO 19017G25KT 10SM SCT023 BKN039 OVC075 20/17 A2991 RMK A01
KFYM 250435Z AUTO 20016G24KT 10SM FEW024 BKN075 OVC100 20/17 A2991 RMK A01
KFYM 250415Z AUTO 19016G24KT 10SM FEW032 BKN080 OVC095 20/17 A2992 RMK A01
KFYM 250355Z AUTO 20016G24KT 170V230 10SM FEW075 OVC095 20/17 A2992 RMK A01
KFYM 250335Z AUTO 19014G21KT 10SM FEW034 SCT100 20/17 A2992 RMK A01
KFYM 250315Z AUTO 18013KT 10SM FEW036 19/17 A2992 RMK A01
KFYM 250255Z AUTO 18011KT 10SM SCT033 19/17 A2993 RMK A01
KFYM 250235Z AUTO 18009KT 10SM BKN034 BKN041 19/17 A2993 RMK A01
KFYM 250215Z AUTO 19012KT 10SM SCT038 BKN110 19/17 A2992 RMK A01
KFYM 250155Z AUTO 18013G19KT 10SM FEW037 SCT090 BKN110 19/17 A2992 RMK A01
KFYM 250135Z AUTO 16014G21KT 10SM FEW037 SCT044 SCT060 19/17 A2992 RMK A01
KFYM 250115Z AUTO 16013KT 10SM FEW042 SCT060 BKN070 18/17 A2992 RMK A01
KFYM 250055Z AUTO 17012KT 10SM SCT044 BKN065 OVC110 19/17 A2993 RMK A01
KFYM 250035Z AUTO 17011KT 9SM FEW003 BKN044 BKN070 19/17 A2993 RMK A01
KFYM 250015Z AUTO 17010G16KT 10SM FEW036 SCT044 BKN120 19/16 A2993 RMK A01
KFYM 242355Z AUTO 17012G18KT 10SM BKN110 19/16 A2993 RMK A01
KFYM 242335Z AUTO 18011G21KT 10SM FEW048 FEW070 OVC110 20/16 A2994 RMK A01
KFYM 242315Z AUTO 18021KT 9SM SCT026 OVC110 20/17 A2994 RMK A01
KFYM 242255Z AUTO 18014G20KT 10SM BKN026 OVC085 21/16 A2995 RMK A01
KFYM 242235Z AUTO 18013G23KT 10SM FEW029 BKN085 BKN100 21/17 A2995 RMK A01
KFYM 242215Z AUTO 19014G21KT 10SM FEW030 SCT100 22/17 A2995 RMK A01
KFYM 242155Z AUTO 19016G27KT 10SM SCT023 BKN028 BKN032 22/17 A2995 RMK A01
KFYM 242135Z AUTO 19014G20KT 10SM BKN024 BKN095 22/17 A2995 RMK A01
KFYM 242115Z AUTO 18015G22KT 10SM SCT024 BKN039 BKN049 22/17 A2995 RMK A01
KFYM 242055Z AUTO 19014G20KT 10SM FEW029 BKN039 BKN050 23/17 A2996 RMK A01
KFYM 242035Z AUTO 19012G18KT 10SM SCT028 BKN036 BKN043 23/17 A2997 RMK A01
KFYM 242015Z AUTO 19011G21KT 10SM SCT027 BKN035 OVC055 23/17 A2997 RMK A01
KFYM 241955Z AUTO 20013G18KT 10SM FEW031 BKN042 23/17 A2998 RMK A01
KFYM 241935Z AUTO 19013G18KT 10SM FEW024 SCT030 SCT036 23/18 A2999 RMK A01
KFYM 241915Z AUTO 18011KT 10SM BKN025 BKN033 22/18 A3000 RMK A01
KFYM 241855Z AUTO 19016KT 10SM BKN021 BKN027 BKN036 22/18 A3002 RMK A01
KFYM 241835Z AUTO 18014KT 10SM BKN021 BKN026 BKN032 22/18 A3002 RMK A01
KFYM 241815Z AUTO 20011G20KT 10SM BKN021 BKN030 BKN039 22/18 A3004 RMK A01
KFYM 241755Z AUTO 20011KT 10SM SCT021 SCT027 BKN038 22/18 A3006 RMK A01
KFYM 241735Z AUTO 20010G16KT 10SM FEW020 SCT027 SCT031 22/18 A3007 RMK A01
KFYM 241715Z AUTO 21011G17KT 10SM SCT019 SCT028 BKN065 22/18 A3008 RMK A01
KFYM 241655Z AUTO 21010G18KT 10SM BKN016 BKN023 BKN040 21/18 A3009 RMK A01
KFYM 241635Z AUTO 22008G18KT 10SM BKN014 OVC019 21/19 A3010 RMK A01
KFYM 241610Z AUTO 22011G16KT 10SM SCT008 OVC013 20/19 A3011 RMK A01
KFYM 241555Z AUTO 21008G13KT 10SM BKN006 OVC015 19/19 A3012 RMK A01 P0004
KFYM 241535Z AUTO 21008KT 3SM BR BKN005 BKN011 BKN018 19/18 A3011 RMK A01
KFYM 241515Z AUTO 20006KT 4SM BR SCT006 BKN013 OVC028 19/18 A3011 RMK A01
KFYM 241455Z AUTO 22009KT 1 1/2SM BR OVC006 19/18 A3012 RMK A01 P0010 VIS 1V2 1/2
KFYM 241435Z AUTO 21006G14KT 1 1/4SM BR SCT004 OVC011 19/18 A3011 RMK A01
KFYM 241415Z AUTO 19009KT 10SM OVC011 19/18 A3011 RMK A01
KFYM 241355Z AUTO 19010KT 2 1/2SM BR OVC013 18/18 A3011 RMK A01 P0001
KFYM 241335Z AUTO 19009KT 8SM OVC014 18/18 A3010 RMK A01
KFYM 241315Z AUTO 19009KT 9SM OVC014 19/17 A3010 RMK A01
KFYM 241255Z AUTO 20007KT 10SM BKN016 BKN035 OVC050 18/17 A3010 RMK A01
KFYM 241230Z AUTO 19009KT 10SM OVC033 18/17 A3009 RMK A01
KFYM 241215Z AUTO 18010G17KT 8SM FEW004 BKN032 OVC038 18/17 A3009 RMK A01
KFYM 241155Z AUTO 18009KT 3SM BR FEW004 SCT023 BKN039 18/17 A3009 RMK A01 P0002
KFYM 241135Z AUTO 18008KT 10SM FEW040 BKN048 OVC070 17/17 A3009 RMK A01
KFYM 241115Z AUTO 18009KT 10SM FEW029 FEW036 OVC070 17/17 A3009 RMK A01
KFYM 241055Z AUTO 17007KT 9SM SCT028 BKN049 OVC065 17/16 A3009 RMK A01
KFYM 241035Z AUTO 15007KT 6SM BR SCT028 BKN034 OVC075 16/16 A3009 RMK A01
KFYM 241015Z AUTO 14005KT 7SM SCT028 SCT046 OVC080 16/16 A3010 RMK A01
KFYM 240955Z AUTO 13005KT 5SM BR SCT014 BKN028 OVC075 16/16 A3010 RMK A01
KFYM 240920Z AUTO 13004KT 4SM BR BKN003 OVC017 16/16 A3011 RMK A01
KFYM 240915Z AUTO 13003KT 4SM BR BKN003 OVC018 16/16 A3012 RMK A01
KFYM 240855Z AUTO 13005KT 3SM BR BKN003 BKN025 OVC030 16/16 A3012 RMK A01 P0001
KFYM 240835Z AUTO 13005KT 4SM BR FEW004 SCT023 OVC030 16/16 A3013 RMK A01
KFYM 240815Z AUTO 13003KT 6SM BR SCT004 BKN023 OVC033 16/16 A3014 RMK A01
KFYM 240755Z AUTO 23003KT 5SM BR BKN004 BKN010 OVC021 16/16 A3016 RMK A01 P0030
KFYM 240735Z AUTO 23004KT 1 3/4SM BR BKN004 OVC010 16/16 A3017 RMK A01
KFYM 240715Z AUTO 23007KT 1 1/2SM BR BKN004 BKN030 OVC034 16/15 A3017 RMK A01
KFYM 240655Z AUTO 24005KT 2 1/2SM HZ FEW004 BKN044 OVC075 17/15 A3016 RMK A01 P0005
KFYM 240635Z AUTO 15005KT 10SM FEW041 BKN050 OVC075 18/13 A3015 RMK A01
KFYM 240615Z AUTO 11004KT 10SM SCT049 BKN055 OVC090 18/13 A3015 RMK A01
KFYM 240555Z AUTO 15003KT 10SM SCT055 SCT090 BKN120 18/13 A3016 RMK A01
KFYM 240535Z AUTO 16004KT 10SM FEW065 FEW075 OVC110 19/13 A3017 RMK A01
KFYM 240515Z AUTO 17006KT BKN110 19/13 A3018 RMK A01
KFYM 240455Z AUTO 17006KT 10SM SCT120 19/13 A3018 RMK A01
KFYM 240435Z AUTO 18006KT 10SM BKN120 20/13 A3019 RMK A01
KFYM 240415Z AUTO 20005KT 10SM BKN110 20/13 A3020 RMK A01
KFYM 240355Z AUTO 20004KT 10SM BKN110 20/13 A3020 RMK A01
KFYM 240335Z AUTO 22004KT 10SM FEW070 OVC110 20/13 A3020 RMK A01